createdAt,value
2023-03-14T00:01:12.051Z,37.10
2023-03-14T00:03:40.379Z,39.90
2023-03-14T00:06:09.211Z,43.50
2023-03-14T00:08:37.588Z,44.10
2023-03-14T00:11:08.525Z,44.20
2023-03-14T00:13:36.685Z,44.30
2023-03-14T00:16:13.563Z,41.10
2023-03-14T00:18:42.085Z,44.90
2023-03-14T00:21:11.744Z,43.90
2023-03-14T00:23:41.854Z,51.50
2023-03-14T00:26:15.098Z,47.40
2023-03-14T00:28:44.055Z,48.60
2023-03-14T00:31:15.303Z,47.90
2023-03-14T00:33:45.060Z,44.00
2023-03-14T00:36:15.567Z,38.80
2023-03-14T00:38:45.139Z,41.90
2023-03-14T00:41:16.646Z,38.10
2023-03-14T00:43:45.020Z,46.70
2023-03-14T00:46:14.073Z,41.40
2023-03-14T00:48:42.242Z,42.10
2023-03-14T00:51:10.669Z,48.10
2023-03-14T00:53:40.207Z,42.50
2023-03-14T00:56:11.088Z,49.40
2023-03-14T00:58:39.711Z,47.80
2023-03-14T01:01:15.633Z,46.00
2023-03-14T01:03:43.493Z,42.60
2023-03-14T01:06:18.470Z,43.90
2023-03-14T01:08:47.345Z,40.60
2023-03-14T01:11:18.805Z,45.20
2023-03-14T01:13:47.376Z,43.10
2023-03-14T01:16:15.976Z,39.90
2023-03-14T01:18:45.457Z,44.90
2023-03-14T01:21:26.177Z,41.50
2023-03-14T01:23:55.637Z,39.40
2023-03-14T01:26:26.946Z,42.60
2023-03-14T01:28:56.593Z,40.20
2023-03-14T01:31:25.747Z,36.70
2023-03-14T01:33:54.005Z,39.20
2023-03-14T01:36:21.958Z,37.60
2023-03-14T01:38:49.919Z,40.30
2023-03-14T01:41:22.670Z,37.50
2023-03-14T01:43:50.936Z,34.50
2023-03-14T01:46:20.997Z,37.00
2023-03-14T01:49:13.667Z,40.00
2023-03-14T01:52:05.048Z,40.50
2023-03-14T01:54:38.338Z,37.80
2023-03-14T01:57:14.602Z,42.10
2023-03-14T01:59:49.793Z,37.60
2023-03-14T02:02:17.902Z,36.90
2023-03-14T02:04:46.450Z,41.70
2023-03-14T02:07:23.524Z,35.70
2023-03-14T02:09:52.470Z,43.70
2023-03-14T02:12:22.649Z,41.00
2023-03-14T02:14:50.627Z,37.60
2023-03-14T02:17:20.350Z,38.60
2023-03-14T02:19:48.096Z,38.00
2023-03-14T02:22:17.489Z,40.40
2023-03-14T02:25:07.867Z,36.60
2023-03-14T02:27:36.508Z,40.80
2023-03-14T02:30:12.060Z,36.40
2023-03-14T02:32:44.822Z,35.20
2023-03-14T02:35:16.511Z,35.80
2023-03-14T02:38:04.767Z,33.20
2023-03-14T02:40:32.762Z,31.70
2023-03-14T02:43:00.757Z,30.90
2023-03-14T02:45:41.723Z,33.70
2023-03-14T02:48:17.856Z,27.60
2023-03-14T02:50:51.735Z,33.00
2023-03-14T02:53:24.759Z,31.60
2023-03-14T02:55:52.716Z,25.30
2023-03-14T02:58:21.281Z,29.00
2023-03-14T03:00:49.758Z,28.70
2023-03-14T03:03:17.757Z,30.90
2023-03-14T03:05:49.738Z,27.70
2023-03-14T03:08:19.051Z,28.30
2023-03-14T03:10:47.551Z,30.80
2023-03-14T03:13:16.059Z,30.20
2023-03-14T03:15:44.363Z,26.40
2023-03-14T03:18:12.289Z,26.50
2023-03-14T03:20:40.105Z,27.90
2023-03-14T03:23:08.021Z,28.30
2023-03-14T03:25:35.917Z,33.00
2023-03-14T03:28:08.562Z,31.90
2023-03-14T03:30:43.177Z,25.70
2023-03-14T03:33:11.996Z,28.10
2023-03-14T03:35:47.527Z,31.10
2023-03-14T03:38:16.349Z,30.00
2023-03-14T03:40:44.857Z,34.00
2023-03-14T03:43:12.746Z,32.10
2023-03-14T03:45:41.260Z,36.90
2023-03-14T03:48:09.140Z,30.30
2023-03-14T03:50:37.077Z,36.00
2023-03-14T03:53:04.955Z,30.70
2023-03-14T03:55:32.758Z,32.30
2023-03-14T03:58:00.555Z,34.90
2023-03-14T04:00:28.436Z,33.50
2023-03-14T04:02:56.458Z,32.50
2023-03-14T04:05:24.702Z,33.30
2023-03-14T04:07:58.256Z,33.60
2023-03-14T04:10:40.063Z,34.70
2023-03-14T04:13:07.943Z,35.00
2023-03-14T04:15:35.816Z,32.10
2023-03-14T04:18:03.848Z,34.90
2023-03-14T04:20:31.804Z,32.50
2023-03-14T04:22:59.643Z,29.90
2023-03-14T04:25:27.679Z,34.20
2023-03-14T04:27:55.767Z,31.30
2023-03-14T04:30:23.823Z,32.20
2023-03-14T04:32:56.401Z,30.50
2023-03-14T04:35:24.635Z,30.30
2023-03-14T04:37:55.152Z,35.30
2023-03-14T04:40:24.898Z,34.60
2023-03-14T04:42:53.339Z,31.00
2023-03-14T04:45:21.344Z,31.60
2023-03-14T04:47:49.238Z,33.50
2023-03-14T04:50:17.015Z,36.90
2023-03-14T04:52:45.035Z,35.90
2023-03-14T04:55:24.453Z,33.00
2023-03-14T04:57:58.039Z,34.80
2023-03-14T05:00:26.181Z,39.20
2023-03-14T05:02:54.221Z,35.20
2023-03-14T05:05:22.584Z,31.60
2023-03-14T05:07:50.648Z,32.90
2023-03-14T05:10:18.627Z,31.20
2023-03-14T05:12:46.424Z,34.10
2023-03-14T05:15:16.405Z,33.50
2023-03-14T05:17:44.714Z,36.30
2023-03-14T05:20:15.576Z,32.90
2023-03-14T05:22:45.117Z,33.10
2023-03-14T05:25:13.297Z,36.10
2023-03-14T05:27:41.133Z,32.00
2023-03-14T05:30:10.092Z,32.00
2023-03-14T05:32:37.964Z,35.20
2023-03-14T05:35:06.367Z,34.10
2023-03-14T05:37:35.573Z,39.50
2023-03-14T05:40:04.321Z,37.20
2023-03-14T05:42:32.248Z,37.40
2023-03-14T05:45:00.131Z,38.00
2023-03-14T05:47:28.056Z,44.30
2023-03-14T05:49:56.004Z,40.10
2023-03-14T05:52:23.862Z,43.10
2023-03-14T05:54:51.661Z,37.40
2023-03-14T05:57:19.495Z,43.20
2023-03-14T05:59:47.382Z,44.70
2023-03-14T06:02:15.231Z,44.70
2023-03-14T06:04:43.140Z,38.50
2023-03-14T06:07:11.028Z,38.60
2023-03-14T06:09:40.591Z,32.80
2023-03-14T06:12:08.502Z,37.50
2023-03-14T06:14:36.405Z,31.80
2023-03-14T06:17:04.322Z,30.50
2023-03-14T06:19:32.424Z,35.50
2023-03-14T06:22:00.389Z,31.30
2023-03-14T06:24:28.368Z,31.20
2023-03-14T06:26:56.188Z,35.60
2023-03-14T06:29:24.104Z,32.30
2023-03-14T06:31:51.981Z,31.80
2023-03-14T06:34:19.779Z,30.20
2023-03-14T06:36:48.323Z,33.80
2023-03-14T06:39:18.168Z,31.50
2023-03-14T06:41:46.528Z,30.50
2023-03-14T06:44:14.428Z,29.60
2023-03-14T06:46:42.377Z,29.20
2023-03-14T06:49:10.226Z,31.30
2023-03-14T06:51:38.123Z,31.50
2023-03-14T06:54:06.136Z,33.00
2023-03-14T06:56:33.990Z,38.00
2023-03-14T06:59:01.829Z,29.90
2023-03-14T07:01:31.928Z,31.90
2023-03-14T07:03:59.946Z,33.20
2023-03-14T07:06:30.310Z,33.50
2023-03-14T07:08:58.476Z,34.10
2023-03-14T07:11:27.395Z,31.90
2023-03-14T07:13:55.364Z,37.80
2023-03-14T07:16:23.311Z,33.80
2023-03-14T07:18:51.125Z,30.50
2023-03-14T07:21:19.022Z,40.50
2023-03-14T07:23:46.911Z,40.10
2023-03-14T07:26:14.872Z,33.30
2023-03-14T07:28:42.809Z,30.20
2023-03-14T07:31:11.277Z,30.60
2023-03-14T07:33:39.329Z,31.70
2023-03-14T07:36:07.978Z,31.50
2023-03-14T07:38:36.191Z,29.60
2023-03-14T07:41:06.576Z,29.80
2023-03-14T07:43:34.741Z,32.30
2023-03-14T07:46:02.832Z,30.40
2023-03-14T07:48:31.036Z,26.50
2023-03-14T07:50:58.848Z,32.60
2023-03-14T07:53:26.834Z,26.20
2023-03-14T07:55:55.725Z,28.50
2023-03-14T07:58:23.986Z,28.40
2023-03-14T08:00:52.981Z,26.60
2023-03-14T08:03:21.092Z,21.90
2023-03-14T08:05:50.567Z,31.60
2023-03-14T08:08:19.060Z,25.70
2023-03-14T08:10:47.462Z,26.00
2023-03-14T08:13:15.347Z,34.90
2023-03-14T08:15:43.282Z,26.50
2023-03-14T08:18:11.388Z,35.80
2023-03-14T08:20:39.242Z,24.20
2023-03-14T08:23:07.059Z,26.80
2023-03-14T08:25:35.285Z,24.60
2023-03-14T08:28:03.185Z,27.60
2023-03-14T08:30:31.349Z,21.50
2023-03-14T08:32:59.526Z,25.20
2023-03-14T08:35:28.307Z,24.60
2023-03-14T08:37:56.863Z,24.50
2023-03-14T08:40:24.908Z,31.30
2023-03-14T08:42:52.975Z,30.10
2023-03-14T08:45:21.113Z,38.20
2023-03-14T08:47:49.082Z,41.10
2023-03-14T08:50:17.056Z,33.20
2023-03-14T08:52:44.991Z,32.30
2023-03-14T08:55:13.024Z,22.20
2023-03-14T08:57:40.963Z,28.20
2023-03-14T09:00:12.021Z,28.00
2023-03-14T09:02:39.966Z,27.80
2023-03-14T09:05:08.503Z,38.00
2023-03-14T09:07:36.620Z,27.80
2023-03-14T09:10:05.026Z,32.60
2023-03-14T09:12:33.321Z,26.30
2023-03-14T09:15:01.226Z,29.50
2023-03-14T09:17:29.140Z,28.00
2023-03-14T09:20:00.054Z,32.60
2023-03-14T09:22:28.340Z,29.00
2023-03-14T09:24:56.232Z,28.20
2023-03-14T09:27:24.170Z,26.60
2023-03-14T09:29:52.192Z,31.70
2023-03-14T09:32:20.140Z,35.60
2023-03-14T09:34:48.076Z,31.10
2023-03-14T09:37:17.334Z,31.80
2023-03-14T09:39:45.191Z,29.30
2023-03-14T09:42:18.652Z,28.60
2023-03-14T09:45:00.831Z,28.00
2023-03-14T09:47:29.292Z,22.00
2023-03-14T09:49:57.161Z,27.30
2023-03-14T09:52:31.938Z,32.10
2023-03-14T09:55:04.895Z,44.60
2023-03-14T09:57:36.462Z,36.70
2023-03-14T10:00:18.372Z,31.10
2023-03-14T10:03:21.639Z,29.30
2023-03-14T10:05:49.693Z,28.80
2023-03-14T10:08:17.578Z,29.10
2023-03-14T10:10:45.608Z,30.80
2023-03-14T10:13:27.136Z,33.40
2023-03-14T10:16:00.068Z,36.20
2023-03-14T10:18:31.301Z,28.10
2023-03-14T10:21:17.826Z,24.20
2023-03-14T10:23:48.539Z,26.00
2023-03-14T10:26:20.202Z,17.20
2023-03-14T10:29:11.031Z,19.00
2023-03-14T10:31:55.428Z,19.50
2023-03-14T10:34:32.322Z,20.70
2023-03-14T10:37:22.270Z,17.40
2023-03-14T10:39:53.045Z,14.90
2023-03-14T10:42:35.513Z,15.60
2023-03-14T10:45:08.963Z,16.00
2023-03-14T10:50:26.614Z,18.20
2023-03-14T10:53:03.712Z,19.40
2023-03-14T10:55:46.193Z,14.90
2023-03-14T10:58:29.481Z,18.70
2023-03-14T11:01:26.534Z,18.50
2023-03-14T11:04:09.420Z,18.50
2023-03-14T11:07:03.427Z,20.20
2023-03-14T11:12:25.884Z,16.00
2023-03-14T11:15:03.389Z,16.30
2023-03-14T11:17:49.872Z,14.80
2023-03-14T11:20:39.653Z,11.00
2023-03-14T11:23:15.764Z,13.50
2023-03-14T11:25:52.679Z,12.00
2023-03-14T11:28:39.838Z,11.30
2023-03-14T11:31:21.110Z,11.90
2023-03-14T11:34:02.047Z,12.40
2023-03-14T11:36:41.413Z,11.70
2023-03-14T11:39:17.412Z,10.90
2023-03-14T11:41:52.292Z,11.00
2023-03-14T11:44:31.713Z,13.80
2023-03-14T11:47:15.412Z,11.30
2023-03-14T11:49:51.840Z,10.60
2023-03-14T11:52:25.847Z,14.70
2023-03-14T11:55:03.696Z,10.40
2023-03-14T11:57:31.601Z,9.30
2023-03-14T12:00:13.359Z,9.80
2023-03-14T12:02:59.159Z,10.50
2023-03-14T12:05:48.843Z,10.20
2023-03-14T12:08:52.257Z,9.70
2023-03-14T12:11:29.065Z,9.10
2023-03-14T12:13:57.150Z,13.00
2023-03-14T12:16:25.006Z,10.90
2023-03-14T12:18:54.382Z,11.50
2023-03-14T12:21:24.085Z,11.70
2023-03-14T12:23:58.382Z,12.80
2023-03-14T12:26:42.766Z,10.50
2023-03-14T12:29:16.568Z,10.50
2023-03-14T12:31:50.359Z,10.30
2023-03-14T12:34:18.197Z,9.20
2023-03-14T12:36:51.940Z,8.90
2023-03-14T12:42:05.327Z,13.40
2023-03-14T12:44:33.130Z,10.10
2023-03-14T12:47:19.431Z,9.70
2023-03-14T12:49:53.312Z,9.10
2023-03-14T12:52:33.765Z,8.50
2023-03-14T12:55:16.252Z,10.00
2023-03-14T12:58:00.589Z,11.00
2023-03-14T13:00:34.317Z,8.00
2023-03-14T13:03:26.246Z,8.80
2023-03-14T13:06:00.164Z,11.10
2023-03-14T13:08:45.687Z,8.20
2023-03-14T13:11:17.980Z,9.60
2023-03-14T13:13:50.875Z,11.80
2023-03-14T13:16:21.866Z,11.70
2023-03-14T13:18:59.704Z,17.00
2023-03-14T13:21:29.386Z,12.30
2023-03-14T13:24:04.765Z,14.40
2023-03-14T13:26:38.542Z,15.00
2023-03-14T13:29:32.409Z,14.30
2023-03-14T13:32:17.237Z,12.70
2023-03-14T13:34:45.147Z,7.20
2023-03-14T13:37:22.818Z,10.30
2023-03-14T13:39:52.592Z,10.20
2023-03-14T13:42:20.500Z,11.90
2023-03-14T13:44:48.870Z,10.50
2023-03-14T13:47:19.587Z,8.30
2023-03-14T13:49:49.372Z,12.20
2023-03-14T13:52:37.236Z,8.80
2023-03-14T13:55:07.029Z,9.20
2023-03-14T13:58:04.455Z,9.10
2023-03-14T14:00:32.539Z,9.60
2023-03-14T14:03:01.360Z,11.30
2023-03-14T14:05:32.369Z,10.90
2023-03-14T14:08:00.946Z,11.00
2023-03-14T14:10:30.473Z,12.60
2023-03-14T14:13:07.015Z,14.60
2023-03-14T14:15:42.847Z,11.50
2023-03-14T14:18:15.843Z,10.60
2023-03-14T14:20:47.620Z,9.70
2023-03-14T14:23:29.901Z,13.10
2023-03-14T14:25:58.908Z,14.90
2023-03-14T14:28:27.920Z,18.60
2023-03-14T14:31:09.228Z,12.10
2023-03-14T14:33:43.647Z,64.80
2023-03-14T14:36:27.895Z,34.70
2023-03-14T14:38:59.484Z,28.80
2023-03-14T14:41:31.666Z,28.80
2023-03-14T14:44:00.900Z,26.10
2023-03-14T14:46:32.914Z,17.70
2023-03-14T14:49:06.995Z,17.40
2023-03-14T14:51:44.689Z,18.70
2023-03-14T14:54:14.781Z,27.40
2023-03-14T14:56:49.850Z,24.20
2023-03-14T14:59:30.052Z,22.10
2023-03-14T15:02:01.528Z,17.10
2023-03-14T15:04:32.924Z,15.40
2023-03-14T15:07:00.972Z,34.40
2023-03-14T15:09:28.871Z,44.00
2023-03-14T15:11:56.774Z,27.10
2023-03-14T15:14:24.686Z,134.80
2023-03-14T15:16:52.542Z,94.20
2023-03-14T15:19:25.663Z,40.90
2023-03-14T15:21:54.602Z,39.90
2023-03-14T15:24:25.864Z,37.20
2023-03-14T15:26:53.977Z,25.30
2023-03-14T15:29:21.933Z,21.30
2023-03-14T15:31:49.954Z,20.60
2023-03-14T15:34:17.922Z,17.50
2023-03-14T15:36:45.782Z,20.10
2023-03-14T15:39:13.701Z,17.50
2023-03-14T15:41:41.919Z,20.10
2023-03-14T15:44:09.797Z,21.00
2023-03-14T15:46:37.748Z,16.90
2023-03-14T15:49:06.016Z,20.10
2023-03-14T15:51:42.029Z,23.80
2023-03-14T15:54:11.223Z,20.30
2023-03-14T15:56:40.652Z,17.50
2023-03-14T15:59:09.046Z,16.80
2023-03-14T16:01:37.071Z,14.80
2023-03-14T16:04:05.112Z,16.10
2023-03-14T16:06:33.156Z,17.00
2023-03-14T16:09:01.247Z,16.80
2023-03-14T16:11:29.213Z,26.40
2023-03-14T16:13:56.978Z,20.20
2023-03-14T16:16:25.221Z,21.00
2023-03-14T16:18:53.115Z,18.90
2023-03-14T16:21:21.332Z,24.30
2023-03-14T16:23:49.342Z,20.40
2023-03-14T16:26:20.195Z,23.10
2023-03-14T16:28:48.108Z,26.90
2023-03-14T16:31:21.627Z,23.30
2023-03-14T16:36:17.579Z,26.60
2023-03-14T16:38:46.769Z,26.10
2023-03-14T16:41:18.273Z,24.70
2023-03-14T16:43:52.430Z,24.30
2023-03-14T16:46:22.775Z,31.30
2023-03-14T16:48:51.407Z,29.80
2023-03-14T16:51:19.419Z,34.00
2023-03-14T16:53:47.816Z,28.20
2023-03-14T16:56:16.183Z,31.00
2023-03-14T16:58:44.955Z,30.30
2023-03-14T17:01:18.314Z,30.30
2023-03-14T17:03:49.342Z,25.10
2023-03-14T17:06:29.114Z,28.20
2023-03-14T17:08:57.843Z,27.10
2023-03-14T17:11:25.942Z,27.90
2023-03-14T17:13:54.177Z,28.30
2023-03-14T17:16:24.685Z,28.90
2023-03-14T17:18:53.441Z,28.70
2023-03-14T17:21:22.490Z,27.50
2023-03-14T17:23:50.828Z,27.70
2023-03-14T17:26:19.257Z,28.70
2023-03-14T17:28:47.121Z,31.60
2023-03-14T17:31:18.034Z,33.10
2023-03-14T17:33:46.088Z,29.00
2023-03-14T17:36:14.896Z,22.00
2023-03-14T17:38:43.034Z,21.70
2023-03-14T17:41:13.374Z,26.00
2023-03-14T17:43:42.327Z,31.20
2023-03-14T17:46:15.310Z,32.90
2023-03-14T17:48:48.212Z,40.70
2023-03-14T17:51:17.261Z,32.40
2023-03-14T17:53:45.424Z,33.90
2023-03-14T17:56:13.395Z,39.60
2023-03-14T17:58:44.084Z,33.20
2023-03-14T18:01:16.756Z,38.00
2023-03-14T18:03:45.747Z,32.70
2023-03-14T18:06:16.062Z,29.50
2023-03-14T18:08:47.417Z,34.90
2023-03-14T18:11:16.436Z,26.50
2023-03-14T18:13:45.761Z,32.00
2023-03-14T18:16:14.696Z,31.20
2023-03-14T18:18:47.811Z,31.60
2023-03-14T18:21:18.469Z,37.10
2023-03-14T18:23:48.356Z,32.90
2023-03-14T18:26:16.581Z,28.50
2023-03-14T18:28:45.048Z,30.40
2023-03-14T18:31:17.685Z,35.10
2023-03-14T18:33:47.984Z,35.50
2023-03-14T18:36:17.299Z,33.80
2023-03-14T18:38:48.519Z,34.50
2023-03-14T18:41:20.292Z,37.40
2023-03-14T18:43:48.216Z,35.10
2023-03-14T18:46:16.470Z,39.30
2023-03-14T18:48:44.590Z,43.00
2023-03-14T18:51:17.933Z,42.60
2023-03-14T18:53:46.523Z,42.00
2023-03-14T18:56:15.564Z,44.30
2023-03-14T18:58:43.681Z,57.60
2023-03-14T19:01:12.826Z,52.40
2023-03-14T19:03:42.402Z,48.40
2023-03-14T19:06:12.118Z,57.80
2023-03-14T19:08:44.615Z,55.10
2023-03-14T19:11:14.368Z,57.80
2023-03-14T19:13:43.230Z,58.70
2023-03-14T19:16:13.130Z,56.30
2023-03-14T19:18:42.120Z,60.30
2023-03-14T19:21:12.970Z,61.60
2023-03-14T19:23:43.682Z,51.50
2023-03-14T19:26:11.674Z,52.80
2023-03-14T19:28:40.101Z,54.70
2023-03-14T19:31:09.452Z,49.60
2023-03-14T19:33:47.533Z,41.50
2023-03-14T19:36:43.446Z,52.80
2023-03-14T19:39:11.627Z,41.10
2023-03-14T19:41:39.856Z,44.60
2023-03-14T19:44:08.149Z,41.20
2023-03-14T19:46:36.192Z,52.50
2023-03-14T19:49:08.000Z,49.30
2023-03-14T19:51:36.176Z,56.50
2023-03-14T19:54:05.172Z,55.00
2023-03-14T19:56:34.280Z,57.90
2023-03-14T19:59:05.339Z,60.90
2023-03-14T20:01:35.181Z,62.30
2023-03-14T20:04:04.454Z,58.60
2023-03-14T20:06:34.487Z,62.10
2023-03-14T20:09:02.899Z,75.30
2023-03-14T20:11:31.178Z,67.40
2023-03-14T20:13:59.030Z,66.70
2023-03-14T20:16:27.115Z,70.30
2023-03-14T20:18:54.986Z,61.50
2023-03-14T20:21:22.931Z,66.30
2023-03-14T20:23:51.492Z,73.60
2023-03-14T20:26:19.520Z,64.80
2023-03-14T20:28:48.254Z,68.20
2023-03-14T20:31:16.396Z,67.20
2023-03-14T20:33:44.431Z,74.30
2023-03-14T20:36:12.353Z,68.20
2023-03-14T20:38:40.585Z,73.40
2023-03-14T20:41:10.686Z,60.60
2023-03-14T20:43:38.908Z,58.20
2023-03-14T20:46:07.057Z,55.00
2023-03-14T20:48:35.064Z,64.00
2023-03-14T20:51:02.918Z,69.60
2023-03-14T20:53:31.212Z,62.60
2023-03-14T20:55:59.080Z,58.80
2023-03-14T20:58:27.294Z,63.40
2023-03-14T21:00:57.584Z,71.00
2023-03-14T21:03:26.209Z,64.30
2023-03-14T21:05:54.325Z,66.00
2023-03-14T21:08:24.839Z,78.70
2023-03-14T21:10:55.385Z,66.00
2023-03-14T21:13:24.351Z,67.80
2023-03-14T21:15:52.440Z,67.10
2023-03-14T21:18:23.216Z,71.30
2023-03-14T21:20:54.339Z,78.20
2023-03-14T21:23:26.745Z,70.90
2023-03-14T21:25:56.922Z,70.80
2023-03-14T21:28:24.968Z,63.70
2023-03-14T21:30:53.419Z,58.10
2023-03-14T21:33:21.761Z,62.10
2023-03-14T21:35:52.767Z,53.90
2023-03-14T21:38:21.117Z,46.20
2023-03-14T21:40:50.499Z,41.50
2023-03-14T21:43:21.845Z,36.30
2023-03-14T21:45:50.512Z,33.30
2023-03-14T21:48:18.451Z,35.30
2023-03-14T21:50:47.320Z,33.10
2023-03-14T21:53:15.549Z,40.60
2023-03-14T21:55:45.059Z,34.30
2023-03-14T21:58:14.900Z,35.30
2023-03-14T22:00:50.370Z,36.60
2023-03-14T22:03:25.040Z,37.90
2023-03-14T22:05:53.063Z,33.80
2023-03-14T22:08:22.756Z,36.50
2023-03-14T22:10:52.788Z,34.10
2023-03-14T22:13:23.715Z,32.00
2023-03-14T22:15:52.627Z,35.30
2023-03-14T22:18:20.518Z,35.00
2023-03-14T22:20:48.452Z,36.20
2023-03-14T22:23:17.040Z,35.60
2023-03-14T22:25:49.431Z,33.20
2023-03-14T22:28:21.150Z,38.30
2023-03-14T22:30:50.507Z,35.60
2023-03-14T22:33:19.330Z,37.20
2023-03-14T22:35:51.807Z,40.70
2023-03-14T22:38:20.061Z,41.70
2023-03-14T22:40:48.699Z,52.70
2023-03-14T22:43:17.676Z,55.70
2023-03-14T22:45:46.164Z,48.50
2023-03-14T22:48:15.433Z,61.80
2023-03-14T22:50:43.451Z,68.60
2023-03-14T22:53:11.361Z,65.60
2023-03-14T22:55:39.209Z,62.00
2023-03-14T22:58:07.558Z,70.90
2023-03-14T23:00:35.353Z,61.90
2023-03-14T23:03:03.259Z,66.20
2023-03-14T23:05:31.258Z,65.20
2023-03-14T23:07:59.160Z,59.10
2023-03-14T23:10:27.045Z,61.60
2023-03-14T23:12:57.606Z,63.50
2023-03-14T23:15:27.115Z,67.10
2023-03-14T23:17:55.011Z,66.50
2023-03-14T23:20:23.288Z,69.40
2023-03-14T23:22:51.267Z,72.90
2023-03-14T23:25:20.028Z,73.70
2023-03-14T23:27:47.928Z,82.80
2023-03-14T23:30:17.288Z,72.50
2023-03-14T23:32:45.339Z,70.00
2023-03-14T23:35:14.702Z,60.70
2023-03-14T23:37:42.618Z,59.00
2023-03-14T23:40:11.405Z,58.20
2023-03-14T23:42:39.856Z,58.20
2023-03-14T23:45:08.052Z,61.20
2023-03-14T23:47:35.894Z,51.60
2023-03-14T23:50:04.085Z,48.40
2023-03-14T23:52:32.049Z,44.90
2023-03-14T23:54:59.938Z,49.30
2023-03-14T23:57:27.828Z,41.00
2023-03-14T23:59:55.698Z,46.30
